sensor_id;sensor_type;location;lat;lon;timestamp;P1;durP1;ratioP1;P2;durP2;ratioP2
23745;SDS011;12053;48.878;9.632;2023-01-28T00:00:48;17.95;;;10.93;;
23745;SDS011;12053;48.878;9.632;2023-01-28T00:03:16;18.77;;;10.13;;
23745;SDS011;12053;48.878;9.632;2023-01-28T00:05:43;17.58;;;9.30;;
23745;SDS011;12053;48.878;9.632;2023-01-28T00:08:10;16.20;;;9.35;;
23745;SDS011;12053;48.878;9.632;2023-01-28T00:10:39;14.23;;;9.82;;
23745;SDS011;12053;48.878;9.632;2023-01-28T00:13:07;16.95;;;10.50;;
23745;SDS011;12053;48.878;9.632;2023-01-28T00:15:34;13.55;;;8.68;;
23745;SDS011;12053;48.878;9.632;2023-01-28T00:18:01;15.98;;;9.90;;
23745;SDS011;12053;48.878;9.632;2023-01-28T00:20:28;17.40;;;9.98;;
23745;SDS011;12053;48.878;9.632;2023-01-28T00:22:55;16.50;;;10.18;;
23745;SDS011;12053;48.878;9.632;2023-01-28T00:25:22;17.98;;;10.30;;
23745;SDS011;12053;48.878;9.632;2023-01-28T00:27:50;17.08;;;9.95;;
23745;SDS011;12053;48.878;9.632;2023-01-28T00:30:17;15.52;;;9.77;;
23745;SDS011;12053;48.878;9.632;2023-01-28T00:32:44;17.40;;;10.20;;
23745;SDS011;12053;48.878;9.632;2023-01-28T00:35:11;17.17;;;10.45;;
23745;SDS011;12053;48.878;9.632;2023-01-28T00:37:39;18.15;;;10.15;;
23745;SDS011;12053;48.878;9.632;2023-01-28T00:40:07;17.67;;;10.00;;
23745;SDS011;12053;48.878;9.632;2023-01-28T00:42:35;19.10;;;9.63;;
23745;SDS011;12053;48.878;9.632;2023-01-28T00:45:02;17.10;;;10.23;;
23745;SDS011;12053;48.878;9.632;2023-01-28T00:47:30;13.40;;;8.90;;
23745;SDS011;12053;48.878;9.632;2023-01-28T00:49:57;13.80;;;8.15;;
23745;SDS011;12053;48.878;9.632;2023-01-28T00:52:24;12.18;;;8.32;;
23745;SDS011;12053;48.878;9.632;2023-01-28T00:54:51;13.00;;;8.40;;
23745;SDS011;12053;48.878;9.632;2023-01-28T00:57:18;13.02;;;8.50;;
23745;SDS011;12053;48.878;9.632;2023-01-28T00:59:46;12.95;;;8.07;;
23745;SDS011;12053;48.878;9.632;2023-01-28T01:02:13;12.82;;;8.15;;
23745;SDS011;12053;48.878;9.632;2023-01-28T01:04:40;13.10;;;8.18;;
23745;SDS011;12053;48.878;9.632;2023-01-28T01:07:21;11.30;;;7.30;;
23745;SDS011;12053;48.878;9.632;2023-01-28T01:09:58;13.65;;;8.35;;
23745;SDS011;12053;48.878;9.632;2023-01-28T01:12:26;12.45;;;8.13;;
23745;SDS011;12053;48.878;9.632;2023-01-28T01:14:53;12.30;;;7.75;;
23745;SDS011;12053;48.878;9.632;2023-01-28T01:17:20;14.63;;;9.15;;
23745;SDS011;12053;48.878;9.632;2023-01-28T01:19:47;13.82;;;7.93;;
23745;SDS011;12053;48.878;9.632;2023-01-28T01:22:15;12.73;;;7.95;;
23745;SDS011;12053;48.878;9.632;2023-01-28T01:24:42;13.45;;;7.47;;
23745;SDS011;12053;48.878;9.632;2023-01-28T01:27:09;16.55;;;8.18;;
23745;SDS011;12053;48.878;9.632;2023-01-28T01:29:36;12.65;;;7.55;;
23745;SDS011;12053;48.878;9.632;2023-01-28T01:32:04;14.57;;;8.23;;
23745;SDS011;12053;48.878;9.632;2023-01-28T01:34:31;11.07;;;7.32;;
23745;SDS011;12053;48.878;9.632;2023-01-28T01:36:58;11.45;;;7.75;;
23745;SDS011;12053;48.878;9.632;2023-01-28T01:39:26;12.35;;;7.50;;
23745;SDS011;12053;48.878;9.632;2023-01-28T01:41:53;11.07;;;7.68;;
23745;SDS011;12053;48.878;9.632;2023-01-28T01:47:06;14.15;;;7.65;;
23745;SDS011;12053;48.878;9.632;2023-01-28T01:49:34;12.52;;;7.80;;
23745;SDS011;12053;48.878;9.632;2023-01-28T01:52:12;14.00;;;8.80;;
23745;SDS011;12053;48.878;9.632;2023-01-28T01:54:41;14.45;;;7.35;;
23745;SDS011;12053;48.878;9.632;2023-01-28T01:57:09;13.07;;;8.65;;
23745;SDS011;12053;48.878;9.632;2023-01-28T01:59:38;10.80;;;7.10;;
23745;SDS011;12053;48.878;9.632;2023-01-28T02:02:06;12.95;;;7.97;;
23745;SDS011;12053;48.878;9.632;2023-01-28T02:04:35;15.13;;;8.70;;
23745;SDS011;12053;48.878;9.632;2023-01-28T02:07:04;15.90;;;9.70;;
23745;SDS011;12053;48.878;9.632;2023-01-28T02:09:34;14.05;;;8.85;;
23745;SDS011;12053;48.878;9.632;2023-01-28T02:12:03;14.63;;;9.18;;
23745;SDS011;12053;48.878;9.632;2023-01-28T02:14:33;14.82;;;8.95;;
23745;SDS011;12053;48.878;9.632;2023-01-28T02:17:01;14.25;;;9.48;;
23745;SDS011;12053;48.878;9.632;2023-01-28T02:19:35;14.25;;;9.52;;
23745;SDS011;12053;48.878;9.632;2023-01-28T02:27:34;13.43;;;8.43;;
23745;SDS011;12053;48.878;9.632;2023-01-28T02:30:10;22.13;;;12.65;;
23745;SDS011;12053;48.878;9.632;2023-01-28T02:35:15;15.80;;;9.70;;
23745;SDS011;12053;48.878;9.632;2023-01-28T02:37:46;16.70;;;10.20;;
23745;SDS011;12053;48.878;9.632;2023-01-28T02:40:38;15.68;;;8.27;;
23745;SDS011;12053;48.878;9.632;2023-01-28T02:43:31;15.43;;;9.18;;
23745;SDS011;12053;48.878;9.632;2023-01-28T02:45:58;14.48;;;9.70;;
23745;SDS011;12053;48.878;9.632;2023-01-28T02:48:44;15.77;;;10.48;;
23745;SDS011;12053;48.878;9.632;2023-01-28T02:54:13;19.25;;;11.15;;
23745;SDS011;12053;48.878;9.632;2023-01-28T02:57:31;15.93;;;10.23;;
23745;SDS011;12053;48.878;9.632;2023-01-28T02:59:34;19.33;;;10.90;;
23745;SDS011;12053;48.878;9.632;2023-01-28T03:02:13;17.83;;;10.60;;
23745;SDS011;12053;48.878;9.632;2023-01-28T03:07:32;16.20;;;10.50;;
23745;SDS011;12053;48.878;9.632;2023-01-28T03:10:01;17.20;;;11.60;;
23745;SDS011;12053;48.878;9.632;2023-01-28T03:12:31;18.23;;;11.07;;
23745;SDS011;12053;48.878;9.632;2023-01-28T03:15:18;15.18;;;10.45;;
23745;SDS011;12053;48.878;9.632;2023-01-28T03:21:04;18.52;;;12.05;;
23745;SDS011;12053;48.878;9.632;2023-01-28T03:23:53;18.02;;;10.93;;
23745;SDS011;12053;48.878;9.632;2023-01-28T03:26:42;19.20;;;11.82;;
23745;SDS011;12053;48.878;9.632;2023-01-28T03:29:29;16.45;;;11.02;;
23745;SDS011;12053;48.878;9.632;2023-01-28T03:32:16;14.85;;;9.10;;
23745;SDS011;12053;48.878;9.632;2023-01-28T03:35:03;19.83;;;11.85;;
23745;SDS011;12053;48.878;9.632;2023-01-28T03:37:51;20.10;;;11.77;;
23745;SDS011;12053;48.878;9.632;2023-01-28T03:40:18;18.05;;;12.07;;
23745;SDS011;12053;48.878;9.632;2023-01-28T03:42:45;19.75;;;12.43;;
23745;SDS011;12053;48.878;9.632;2023-01-28T03:45:13;21.30;;;13.35;;
23745;SDS011;12053;48.878;9.632;2023-01-28T03:47:41;18.27;;;11.45;;
23745;SDS011;12053;48.878;9.632;2023-01-28T03:50:09;19.20;;;11.93;;
23745;SDS011;12053;48.878;9.632;2023-01-28T03:52:36;18.55;;;12.00;;
23745;SDS011;12053;48.878;9.632;2023-01-28T03:55:04;18.42;;;11.07;;
23745;SDS011;12053;48.878;9.632;2023-01-28T03:57:39;17.65;;;11.48;;
23745;SDS011;12053;48.878;9.632;2023-01-28T04:00:07;18.85;;;11.80;;
23745;SDS011;12053;48.878;9.632;2023-01-28T04:02:36;20.50;;;11.65;;
23745;SDS011;12053;48.878;9.632;2023-01-28T04:05:06;16.30;;;10.65;;
23745;SDS011;12053;48.878;9.632;2023-01-28T04:07:38;17.50;;;11.52;;
23745;SDS011;12053;48.878;9.632;2023-01-28T04:10:05;18.63;;;10.55;;
23745;SDS011;12053;48.878;9.632;2023-01-28T04:12:33;22.02;;;13.07;;
23745;SDS011;12053;48.878;9.632;2023-01-28T04:15:03;19.08;;;11.05;;
23745;SDS011;12053;48.878;9.632;2023-01-28T04:17:44;22.45;;;13.50;;
23745;SDS011;12053;48.878;9.632;2023-01-28T04:20:12;21.95;;;12.70;;
23745;SDS011;12053;48.878;9.632;2023-01-28T04:22:39;18.70;;;12.05;;
23745;SDS011;12053;48.878;9.632;2023-01-28T04:25:07;17.88;;;11.27;;
23745;SDS011;12053;48.878;9.632;2023-01-28T04:27:34;20.65;;;12.75;;
23745;SDS011;12053;48.878;9.632;2023-01-28T04:30:01;20.50;;;11.95;;
23745;SDS011;12053;48.878;9.632;2023-01-28T04:32:29;19.42;;;12.35;;
23745;SDS011;12053;48.878;9.632;2023-01-28T04:34:56;17.95;;;11.50;;
23745;SDS011;12053;48.878;9.632;2023-01-28T04:37:23;17.33;;;11.55;;
23745;SDS011;12053;48.878;9.632;2023-01-28T04:39:50;27.02;;;13.60;;
23745;SDS011;12053;48.878;9.632;2023-01-28T04:42:17;19.13;;;12.85;;
23745;SDS011;12053;48.878;9.632;2023-01-28T04:44:44;20.85;;;14.15;;
23745;SDS011;12053;48.878;9.632;2023-01-28T04:47:12;23.73;;;13.95;;
23745;SDS011;12053;48.878;9.632;2023-01-28T04:49:39;21.73;;;13.43;;
23745;SDS011;12053;48.878;9.632;2023-01-28T04:52:06;23.08;;;13.85;;
23745;SDS011;12053;48.878;9.632;2023-01-28T04:54:33;22.48;;;15.05;;
23745;SDS011;12053;48.878;9.632;2023-01-28T04:57:00;26.25;;;15.38;;
23745;SDS011;12053;48.878;9.632;2023-01-28T04:59:27;20.85;;;13.50;;
23745;SDS011;12053;48.878;9.632;2023-01-28T05:01:55;21.65;;;13.65;;
23745;SDS011;12053;48.878;9.632;2023-01-28T05:04:22;20.42;;;12.98;;
23745;SDS011;12053;48.878;9.632;2023-01-28T05:06:49;21.10;;;12.20;;
23745;SDS011;12053;48.878;9.632;2023-01-28T05:09:16;18.35;;;11.00;;
23745;SDS011;12053;48.878;9.632;2023-01-28T05:11:44;17.67;;;11.93;;
23745;SDS011;12053;48.878;9.632;2023-01-28T05:14:11;17.10;;;10.90;;
23745;SDS011;12053;48.878;9.632;2023-01-28T05:16:38;16.20;;;10.90;;
23745;SDS011;12053;48.878;9.632;2023-01-28T05:19:05;17.95;;;11.70;;
23745;SDS011;12053;48.878;9.632;2023-01-28T05:21:32;18.40;;;11.88;;
23745;SDS011;12053;48.878;9.632;2023-01-28T05:23:59;19.25;;;11.82;;
23745;SDS011;12053;48.878;9.632;2023-01-28T05:26:27;19.02;;;11.43;;
23745;SDS011;12053;48.878;9.632;2023-01-28T05:28:54;21.65;;;11.95;;
23745;SDS011;12053;48.878;9.632;2023-01-28T05:31:21;21.05;;;13.00;;
23745;SDS011;12053;48.878;9.632;2023-01-28T05:33:48;18.33;;;12.13;;
23745;SDS011;12053;48.878;9.632;2023-01-28T05:36:18;16.05;;;10.93;;
23745;SDS011;12053;48.878;9.632;2023-01-28T05:38:45;17.25;;;10.93;;
23745;SDS011;12053;48.878;9.632;2023-01-28T05:41:12;18.38;;;12.88;;
23745;SDS011;12053;48.878;9.632;2023-01-28T05:43:39;18.92;;;11.95;;
23745;SDS011;12053;48.878;9.632;2023-01-28T05:46:06;18.90;;;12.27;;
23745;SDS011;12053;48.878;9.632;2023-01-28T05:48:34;20.73;;;12.82;;
23745;SDS011;12053;48.878;9.632;2023-01-28T05:51:01;19.48;;;13.38;;
23745;SDS011;12053;48.878;9.632;2023-01-28T05:53:30;19.75;;;12.15;;
23745;SDS011;12053;48.878;9.632;2023-01-28T05:55:57;20.65;;;13.13;;
23745;SDS011;12053;48.878;9.632;2023-01-28T05:58:24;17.48;;;11.35;;
23745;SDS011;12053;48.878;9.632;2023-01-28T06:00:56;22.05;;;15.40;;
23745;SDS011;12053;48.878;9.632;2023-01-28T06:03:23;21.17;;;13.77;;
23745;SDS011;12053;48.878;9.632;2023-01-28T06:05:50;20.45;;;13.27;;
23745;SDS011;12053;48.878;9.632;2023-01-28T06:08:17;19.55;;;12.90;;
23745;SDS011;12053;48.878;9.632;2023-01-28T06:10:45;19.00;;;12.48;;
23745;SDS011;12053;48.878;9.632;2023-01-28T06:13:12;21.77;;;13.43;;
23745;SDS011;12053;48.878;9.632;2023-01-28T06:15:39;22.27;;;14.45;;
23745;SDS011;12053;48.878;9.632;2023-01-28T06:18:06;23.63;;;14.35;;
23745;SDS011;12053;48.878;9.632;2023-01-28T06:20:34;18.73;;;13.23;;
23745;SDS011;12053;48.878;9.632;2023-01-28T06:23:01;21.40;;;14.35;;
23745;SDS011;12053;48.878;9.632;2023-01-28T06:25:28;26.52;;;15.73;;
23745;SDS011;12053;48.878;9.632;2023-01-28T06:27:55;22.40;;;13.88;;
23745;SDS011;12053;48.878;9.632;2023-01-28T06:30:22;15.90;;;10.50;;
23745;SDS011;12053;48.878;9.632;2023-01-28T06:32:53;19.17;;;13.48;;
23745;SDS011;12053;48.878;9.632;2023-01-28T06:35:21;21.75;;;13.07;;
23745;SDS011;12053;48.878;9.632;2023-01-28T06:37:48;23.73;;;13.98;;
23745;SDS011;12053;48.878;9.632;2023-01-28T06:40:15;21.27;;;14.00;;
23745;SDS011;12053;48.878;9.632;2023-01-28T06:42:43;20.77;;;13.98;;
23745;SDS011;12053;48.878;9.632;2023-01-28T06:45:10;21.05;;;12.93;;
23745;SDS011;12053;48.878;9.632;2023-01-28T06:47:38;20.48;;;13.57;;
23745;SDS011;12053;48.878;9.632;2023-01-28T06:50:05;20.33;;;13.38;;
23745;SDS011;12053;48.878;9.632;2023-01-28T06:52:32;21.90;;;13.35;;
23745;SDS011;12053;48.878;9.632;2023-01-28T06:55:00;20.88;;;13.07;;
23745;SDS011;12053;48.878;9.632;2023-01-28T06:57:30;20.58;;;12.18;;
23745;SDS011;12053;48.878;9.632;2023-01-28T07:00:01;19.08;;;11.65;;
23745;SDS011;12053;48.878;9.632;2023-01-28T07:02:29;22.35;;;13.93;;
23745;SDS011;12053;48.878;9.632;2023-01-28T07:04:56;19.25;;;11.50;;
23745;SDS011;12053;48.878;9.632;2023-01-28T07:07:23;19.10;;;12.43;;
23745;SDS011;12053;48.878;9.632;2023-01-28T07:09:51;20.88;;;13.68;;
23745;SDS011;12053;48.878;9.632;2023-01-28T07:12:18;20.67;;;13.65;;
23745;SDS011;12053;48.878;9.632;2023-01-28T07:14:45;20.42;;;12.70;;
23745;SDS011;12053;48.878;9.632;2023-01-28T07:17:12;24.13;;;13.95;;
23745;SDS011;12053;48.878;9.632;2023-01-28T07:19:39;19.85;;;11.60;;
23745;SDS011;12053;48.878;9.632;2023-01-28T07:22:07;26.73;;;18.13;;
23745;SDS011;12053;48.878;9.632;2023-01-28T07:24:34;26.25;;;16.52;;
23745;SDS011;12053;48.878;9.632;2023-01-28T07:27:01;23.55;;;14.02;;
23745;SDS011;12053;48.878;9.632;2023-01-28T07:29:29;27.83;;;17.65;;
23745;SDS011;12053;48.878;9.632;2023-01-28T07:31:56;36.35;;;21.40;;
23745;SDS011;12053;48.878;9.632;2023-01-28T07:34:24;71.93;;;29.90;;
23745;SDS011;12053;48.878;9.632;2023-01-28T07:36:51;21.80;;;12.02;;
23745;SDS011;12053;48.878;9.632;2023-01-28T07:39:18;32.03;;;18.17;;
23745;SDS011;12053;48.878;9.632;2023-01-28T07:41:45;28.30;;;17.50;;
23745;SDS011;12053;48.878;9.632;2023-01-28T07:44:12;28.50;;;17.45;;
23745;SDS011;12053;48.878;9.632;2023-01-28T07:46:39;24.85;;;15.30;;
23745;SDS011;12053;48.878;9.632;2023-01-28T07:49:07;28.25;;;16.17;;
23745;SDS011;12053;48.878;9.632;2023-01-28T07:51:34;24.15;;;14.98;;
23745;SDS011;12053;48.878;9.632;2023-01-28T07:54:01;28.83;;;17.38;;
23745;SDS011;12053;48.878;9.632;2023-01-28T07:56:29;28.60;;;16.58;;
23745;SDS011;12053;48.878;9.632;2023-01-28T07:58:56;27.35;;;17.13;;
23745;SDS011;12053;48.878;9.632;2023-01-28T08:01:24;33.25;;;17.83;;
23745;SDS011;12053;48.878;9.632;2023-01-28T08:03:51;28.15;;;17.42;;
23745;SDS011;12053;48.878;9.632;2023-01-28T08:06:19;36.33;;;24.77;;
23745;SDS011;12053;48.878;9.632;2023-01-28T08:08:46;30.25;;;19.17;;
23745;SDS011;12053;48.878;9.632;2023-01-28T08:11:13;24.27;;;15.45;;
23745;SDS011;12053;48.878;9.632;2023-01-28T08:13:41;24.25;;;15.80;;
23745;SDS011;12053;48.878;9.632;2023-01-28T08:16:08;23.75;;;15.07;;
23745;SDS011;12053;48.878;9.632;2023-01-28T08:18:36;25.08;;;14.98;;
23745;SDS011;12053;48.878;9.632;2023-01-28T08:21:03;25.40;;;15.07;;
23745;SDS011;12053;48.878;9.632;2023-01-28T08:23:30;24.20;;;14.00;;
23745;SDS011;12053;48.878;9.632;2023-01-28T08:25:59;28.00;;;16.35;;
23745;SDS011;12053;48.878;9.632;2023-01-28T08:28:26;25.58;;;15.88;;
23745;SDS011;12053;48.878;9.632;2023-01-28T08:30:54;27.30;;;16.42;;
23745;SDS011;12053;48.878;9.632;2023-01-28T08:33:21;25.63;;;16.60;;
23745;SDS011;12053;48.878;9.632;2023-01-28T08:35:48;25.33;;;16.52;;
23745;SDS011;12053;48.878;9.632;2023-01-28T08:38:15;29.25;;;18.23;;
23745;SDS011;12053;48.878;9.632;2023-01-28T08:40:43;27.80;;;15.73;;
23745;SDS011;12053;48.878;9.632;2023-01-28T08:43:10;26.83;;;15.40;;
23745;SDS011;12053;48.878;9.632;2023-01-28T08:45:38;27.48;;;15.63;;
23745;SDS011;12053;48.878;9.632;2023-01-28T08:48:06;23.75;;;14.68;;
23745;SDS011;12053;48.878;9.632;2023-01-28T08:50:35;25.90;;;15.05;;
23745;SDS011;12053;48.878;9.632;2023-01-28T08:53:04;20.88;;;12.40;;
23745;SDS011;12053;48.878;9.632;2023-01-28T08:55:32;25.10;;;15.32;;
23745;SDS011;12053;48.878;9.632;2023-01-28T08:58:03;23.50;;;14.90;;
23745;SDS011;12053;48.878;9.632;2023-01-28T09:00:31;23.02;;;13.80;;
23745;SDS011;12053;48.878;9.632;2023-01-28T09:02:58;26.67;;;16.48;;
23745;SDS011;12053;48.878;9.632;2023-01-28T09:05:26;26.92;;;16.20;;
23745;SDS011;12053;48.878;9.632;2023-01-28T09:07:53;25.30;;;13.85;;
23745;SDS011;12053;48.878;9.632;2023-01-28T09:10:20;21.23;;;13.07;;
23745;SDS011;12053;48.878;9.632;2023-01-28T09:12:47;27.90;;;16.38;;
23745;SDS011;12053;48.878;9.632;2023-01-28T09:15:15;26.50;;;15.52;;
23745;SDS011;12053;48.878;9.632;2023-01-28T09:17:43;24.98;;;15.68;;
23745;SDS011;12053;48.878;9.632;2023-01-28T09:20:10;26.52;;;15.48;;
23745;SDS011;12053;48.878;9.632;2023-01-28T09:22:39;25.35;;;15.35;;
23745;SDS011;12053;48.878;9.632;2023-01-28T09:25:06;27.30;;;15.75;;
23745;SDS011;12053;48.878;9.632;2023-01-28T09:27:34;28.83;;;17.60;;
23745;SDS011;12053;48.878;9.632;2023-01-28T09:30:01;21.75;;;13.02;;
23745;SDS011;12053;48.878;9.632;2023-01-28T09:32:28;22.75;;;13.02;;
23745;SDS011;12053;48.878;9.632;2023-01-28T09:34:56;23.65;;;15.27;;
23745;SDS011;12053;48.878;9.632;2023-01-28T09:37:23;28.85;;;16.85;;
23745;SDS011;12053;48.878;9.632;2023-01-28T09:39:50;23.25;;;13.18;;
23745;SDS011;12053;48.878;9.632;2023-01-28T09:44:50;23.30;;;13.88;;
23745;SDS011;12053;48.878;9.632;2023-01-28T09:47:37;24.13;;;12.57;;
23745;SDS011;12053;48.878;9.632;2023-01-28T09:50:07;16.75;;;10.50;;
23745;SDS011;12053;48.878;9.632;2023-01-28T09:52:36;23.85;;;14.38;;
23745;SDS011;12053;48.878;9.632;2023-01-28T09:55:06;27.38;;;16.08;;
23745;SDS011;12053;48.878;9.632;2023-01-28T09:57:45;27.30;;;15.95;;
23745;SDS011;12053;48.878;9.632;2023-01-28T10:00:14;24.05;;;13.13;;
23745;SDS011;12053;48.878;9.632;2023-01-28T10:03:00;29.48;;;16.95;;
23745;SDS011;12053;48.878;9.632;2023-01-28T10:06:19;28.00;;;16.67;;
23745;SDS011;12053;48.878;9.632;2023-01-28T10:13:48;25.30;;;14.23;;
23745;SDS011;12053;48.878;9.632;2023-01-28T10:16:20;26.20;;;14.88;;
23745;SDS011;12053;48.878;9.632;2023-01-28T10:21:38;25.90;;;15.38;;
23745;SDS011;12053;48.878;9.632;2023-01-28T10:24:16;26.75;;;14.77;;
23745;SDS011;12053;48.878;9.632;2023-01-28T10:26:47;27.90;;;16.63;;
23745;SDS011;12053;48.878;9.632;2023-01-28T10:29:18;25.45;;;15.32;;
23745;SDS011;12053;48.878;9.632;2023-01-28T10:31:49;22.48;;;14.63;;
23745;SDS011;12053;48.878;9.632;2023-01-28T10:34:17;23.50;;;14.38;;
23745;SDS011;12053;48.878;9.632;2023-01-28T10:36:45;25.58;;;15.32;;
23745;SDS011;12053;48.878;9.632;2023-01-28T10:39:17;25.40;;;15.35;;
23745;SDS011;12053;48.878;9.632;2023-01-28T10:41:45;24.83;;;14.57;;
23745;SDS011;12053;48.878;9.632;2023-01-28T10:44:36;28.98;;;15.18;;
23745;SDS011;12053;48.878;9.632;2023-01-28T10:47:08;28.83;;;15.35;;
23745;SDS011;12053;48.878;9.632;2023-01-28T10:49:38;25.25;;;15.70;;
23745;SDS011;12053;48.878;9.632;2023-01-28T10:52:13;26.67;;;15.40;;
23745;SDS011;12053;48.878;9.632;2023-01-28T10:54:41;26.10;;;15.50;;
23745;SDS011;12053;48.878;9.632;2023-01-28T10:57:12;26.85;;;16.15;;
23745;SDS011;12053;48.878;9.632;2023-01-28T10:59:41;24.98;;;15.02;;
23745;SDS011;12053;48.878;9.632;2023-01-28T11:04:50;18.35;;;10.05;;
23745;SDS011;12053;48.878;9.632;2023-01-28T11:07:26;23.58;;;12.85;;
23745;SDS011;12053;48.878;9.632;2023-01-28T11:09:53;23.20;;;14.23;;
23745;SDS011;12053;48.878;9.632;2023-01-28T11:12:27;50.50;;;26.77;;
23745;SDS011;12053;48.878;9.632;2023-01-28T11:15:02;102.63;;;39.17;;
23745;SDS011;12053;48.878;9.632;2023-01-28T11:17:31;26.95;;;15.70;;
23745;SDS011;12053;48.878;9.632;2023-01-28T11:20:00;24.02;;;13.77;;
23745;SDS011;12053;48.878;9.632;2023-01-28T11:22:35;23.20;;;14.20;;
23745;SDS011;12053;48.878;9.632;2023-01-28T11:25:05;24.25;;;15.38;;
23745;SDS011;12053;48.878;9.632;2023-01-28T11:27:40;26.08;;;15.05;;
23745;SDS011;12053;48.878;9.632;2023-01-28T11:30:15;21.95;;;13.98;;
23745;SDS011;12053;48.878;9.632;2023-01-28T11:32:53;23.83;;;14.50;;
23745;SDS011;12053;48.878;9.632;2023-01-28T11:35:24;27.65;;;15.13;;
23745;SDS011;12053;48.878;9.632;2023-01-28T11:37:53;27.58;;;16.83;;
23745;SDS011;12053;48.878;9.632;2023-01-28T11:40:21;24.27;;;15.63;;
23745;SDS011;12053;48.878;9.632;2023-01-28T11:42:50;26.63;;;15.15;;
23745;SDS011;12053;48.878;9.632;2023-01-28T11:45:19;27.65;;;14.93;;
23745;SDS011;12053;48.878;9.632;2023-01-28T11:47:49;25.42;;;15.93;;
23745;SDS011;12053;48.878;9.632;2023-01-28T11:50:28;25.38;;;14.95;;
23745;SDS011;12053;48.878;9.632;2023-01-28T11:53:03;24.55;;;13.55;;
23745;SDS011;12053;48.878;9.632;2023-01-28T11:55:37;21.85;;;11.70;;
23745;SDS011;12053;48.878;9.632;2023-01-28T12:00:43;24.83;;;14.70;;
23745;SDS011;12053;48.878;9.632;2023-01-28T12:05:56;27.23;;;14.95;;
23745;SDS011;12053;48.878;9.632;2023-01-28T12:08:25;23.58;;;14.00;;
23745;SDS011;12053;48.878;9.632;2023-01-28T12:16:06;23.40;;;12.50;;
23745;SDS011;12053;48.878;9.632;2023-01-28T12:21:04;21.88;;;12.23;;
23745;SDS011;12053;48.878;9.632;2023-01-28T12:23:37;22.52;;;12.60;;
23745;SDS011;12053;48.878;9.632;2023-01-28T12:28:57;23.60;;;13.40;;
23745;SDS011;12053;48.878;9.632;2023-01-28T12:37:01;23.70;;;13.80;;
23745;SDS011;12053;48.878;9.632;2023-01-28T12:41:59;21.05;;;12.10;;
23745;SDS011;12053;48.878;9.632;2023-01-28T12:44:30;22.98;;;13.15;;
23745;SDS011;12053;48.878;9.632;2023-01-28T12:47:08;23.48;;;14.95;;
23745;SDS011;12053;48.878;9.632;2023-01-28T12:49:42;28.05;;;16.83;;
23745;SDS011;12053;48.878;9.632;2023-01-28T12:57:13;18.02;;;10.38;;
23745;SDS011;12053;48.878;9.632;2023-01-28T12:59:47;18.40;;;11.43;;
23745;SDS011;12053;48.878;9.632;2023-01-28T13:02:17;20.20;;;13.48;;
23745;SDS011;12053;48.878;9.632;2023-01-28T13:07:23;17.85;;;11.88;;
23745;SDS011;12053;48.878;9.632;2023-01-28T13:09:53;18.17;;;10.27;;
23745;SDS011;12053;48.878;9.632;2023-01-28T13:12:22;16.35;;;10.60;;
23745;SDS011;12053;48.878;9.632;2023-01-28T13:14:50;21.13;;;13.77;;
23745;SDS011;12053;48.878;9.632;2023-01-28T13:17:26;20.17;;;11.30;;
23745;SDS011;12053;48.878;9.632;2023-01-28T13:19:54;20.75;;;13.48;;
23745;SDS011;12053;48.878;9.632;2023-01-28T13:22:24;25.65;;;14.40;;
23745;SDS011;12053;48.878;9.632;2023-01-28T13:24:52;23.48;;;15.55;;
23745;SDS011;12053;48.878;9.632;2023-01-28T13:27:21;19.35;;;11.88;;
23745;SDS011;12053;48.878;9.632;2023-01-28T13:29:58;22.45;;;12.07;;
23745;SDS011;12053;48.878;9.632;2023-01-28T13:32:30;17.95;;;9.80;;
23745;SDS011;12053;48.878;9.632;2023-01-28T13:34:59;11.98;;;6.82;;
23745;SDS011;12053;48.878;9.632;2023-01-28T13:40:15;18.42;;;11.80;;
23745;SDS011;12053;48.878;9.632;2023-01-28T13:42:44;22.73;;;13.07;;
23745;SDS011;12053;48.878;9.632;2023-01-28T13:45:23;20.95;;;11.60;;
23745;SDS011;12053;48.878;9.632;2023-01-28T13:47:57;21.20;;;12.05;;
23745;SDS011;12053;48.878;9.632;2023-01-28T13:50:31;16.15;;;10.55;;
23745;SDS011;12053;48.878;9.632;2023-01-28T13:53:15;19.10;;;11.23;;
23745;SDS011;12053;48.878;9.632;2023-01-28T13:55:43;9.63;;;6.75;;
23745;SDS011;12053;48.878;9.632;2023-01-28T14:03:23;15.48;;;11.15;;
23745;SDS011;12053;48.878;9.632;2023-01-28T14:05:59;18.50;;;10.35;;
23745;SDS011;12053;48.878;9.632;2023-01-28T14:14:23;17.25;;;10.05;;
23745;SDS011;12053;48.878;9.632;2023-01-28T14:19:18;14.55;;;8.40;;
23745;SDS011;12053;48.878;9.632;2023-01-28T14:21:47;14.20;;;9.48;;
23745;SDS011;12053;48.878;9.632;2023-01-28T14:24:15;16.10;;;9.90;;
23745;SDS011;12053;48.878;9.632;2023-01-28T14:29:34;12.88;;;7.82;;
23745;SDS011;12053;48.878;9.632;2023-01-28T14:32:04;14.48;;;8.18;;
23745;SDS011;12053;48.878;9.632;2023-01-28T14:34:35;15.45;;;8.70;;
23745;SDS011;12053;48.878;9.632;2023-01-28T14:37:07;13.00;;;8.70;;
23745;SDS011;12053;48.878;9.632;2023-01-28T14:39:44;16.10;;;9.70;;
23745;SDS011;12053;48.878;9.632;2023-01-28T14:42:17;29.75;;;13.95;;
23745;SDS011;12053;48.878;9.632;2023-01-28T14:44:45;11.10;;;8.52;;
23745;SDS011;12053;48.878;9.632;2023-01-28T14:55:22;10.80;;;7.78;;
23745;SDS011;12053;48.878;9.632;2023-01-28T14:57:54;12.98;;;9.32;;
23745;SDS011;12053;48.878;9.632;2023-01-28T15:02:50;20.52;;;12.68;;
23745;SDS011;12053;48.878;9.632;2023-01-28T15:05:19;11.65;;;8.15;;
23745;SDS011;12053;48.878;9.632;2023-01-28T15:07:47;10.90;;;8.50;;
23745;SDS011;12053;48.878;9.632;2023-01-28T15:12:43;14.00;;;9.15;;
23745;SDS011;12053;48.878;9.632;2023-01-28T15:15:24;13.50;;;9.80;;
23745;SDS011;12053;48.878;9.632;2023-01-28T15:17:55;13.40;;;9.27;;
23745;SDS011;12053;48.878;9.632;2023-01-28T15:20:24;12.52;;;9.07;;
23745;SDS011;12053;48.878;9.632;2023-01-28T15:22:51;12.40;;;9.38;;
23745;SDS011;12053;48.878;9.632;2023-01-28T15:25:22;13.60;;;9.07;;
23745;SDS011;12053;48.878;9.632;2023-01-28T15:27:50;13.35;;;9.23;;
23745;SDS011;12053;48.878;9.632;2023-01-28T15:30:19;14.98;;;10.60;;
23745;SDS011;12053;48.878;9.632;2023-01-28T15:35:24;13.80;;;10.15;;
23745;SDS011;12053;48.878;9.632;2023-01-28T15:37:51;12.07;;;8.32;;
23745;SDS011;12053;48.878;9.632;2023-01-28T15:40:20;13.15;;;9.10;;
23745;SDS011;12053;48.878;9.632;2023-01-28T15:42:48;13.57;;;9.80;;
23745;SDS011;12053;48.878;9.632;2023-01-28T15:45:19;10.65;;;8.85;;
23745;SDS011;12053;48.878;9.632;2023-01-28T15:47:47;12.70;;;8.70;;
23745;SDS011;12053;48.878;9.632;2023-01-28T15:50:19;13.85;;;10.05;;
23745;SDS011;12053;48.878;9.632;2023-01-28T15:52:47;14.50;;;9.60;;
23745;SDS011;12053;48.878;9.632;2023-01-28T15:55:34;13.95;;;9.55;;
23745;SDS011;12053;48.878;9.632;2023-01-28T16:00:38;12.48;;;9.13;;
23745;SDS011;12053;48.878;9.632;2023-01-28T16:03:06;11.65;;;8.70;;
23745;SDS011;12053;48.878;9.632;2023-01-28T16:08:02;10.45;;;7.68;;
23745;SDS011;12053;48.878;9.632;2023-01-28T16:10:33;12.53;;;8.77;;
23745;SDS011;12053;48.878;9.632;2023-01-28T16:13:05;11.73;;;9.55;;
23745;SDS011;12053;48.878;9.632;2023-01-28T16:15:32;13.88;;;9.52;;
23745;SDS011;12053;48.878;9.632;2023-01-28T16:18:02;16.30;;;9.80;;
23745;SDS011;12053;48.878;9.632;2023-01-28T16:20:30;11.52;;;8.90;;
23745;SDS011;12053;48.878;9.632;2023-01-28T16:22:59;13.38;;;9.57;;
23745;SDS011;12053;48.878;9.632;2023-01-28T16:27:55;12.73;;;9.13;;